sensor_id;sensor_type;location;lat;lon;timestamp;temperature;humidity
21312;DHT22;18076;52.154;10.570;2023-10-19T00:01:20;7.90;99.90
21312;DHT22;18076;52.154;10.570;2023-10-19T00:03:49;7.90;99.90
21312;DHT22;18076;52.154;10.570;2023-10-19T00:06:15;7.90;99.90
21312;DHT22;18076;52.154;10.570;2023-10-19T00:08:40;7.80;99.90
21312;DHT22;18076;52.154;10.570;2023-10-19T00:11:07;7.80;99.90
21312;DHT22;18076;52.154;10.570;2023-10-19T00:13:34;7.80;99.90
21312;DHT22;18076;52.154;10.570;2023-10-19T00:16:06;7.80;99.90
21312;DHT22;18076;52.154;10.570;2023-10-19T00:19:04;7.80;99.90
21312;DHT22;18076;52.154;10.570;2023-10-19T00:21:30;7.80;99.90
21312;DHT22;18076;52.154;10.570;2023-10-19T00:24:01;7.80;99.90
21312;DHT22;18076;52.154;10.570;2023-10-19T00:26:30;7.70;99.90
21312;DHT22;18076;52.154;10.570;2023-10-19T00:28:55;7.70;99.90
21312;DHT22;18076;52.154;10.570;2023-10-19T00:31:22;7.60;99.90
21312;DHT22;18076;52.154;10.570;2023-10-19T00:33:48;7.60;99.90
21312;DHT22;18076;52.154;10.570;2023-10-19T00:36:17;7.60;99.90
21312;DHT22;18076;52.154;10.570;2023-10-19T00:38:45;7.60;99.90
21312;DHT22;18076;52.154;10.570;2023-10-19T00:41:14;7.50;99.90
21312;DHT22;18076;52.154;10.570;2023-10-19T00:43:45;7.50;99.90
21312;DHT22;18076;52.154;10.570;2023-10-19T00:46:18;7.40;99.90
21312;DHT22;18076;52.154;10.570;2023-10-19T00:48:44;7.40;99.90
21312;DHT22;18076;52.154;10.570;2023-10-19T00:51:12;7.40;99.90
21312;DHT22;18076;52.154;10.570;2023-10-19T00:53:56;7.30;99.90
21312;DHT22;18076;52.154;10.570;2023-10-19T00:56:24;7.30;99.90
21312;DHT22;18076;52.154;10.570;2023-10-19T00:58:53;7.40;99.90
21312;DHT22;18076;52.154;10.570;2023-10-19T01:01:22;7.30;99.90
21312;DHT22;18076;52.154;10.570;2023-10-19T01:03:50;7.40;99.90
21312;DHT22;18076;52.154;10.570;2023-10-19T01:06:17;7.30;99.90
21312;DHT22;18076;52.154;10.570;2023-10-19T01:08:45;7.30;99.90
21312;DHT22;18076;52.154;10.570;2023-10-19T01:11:11;7.40;99.90
21312;DHT22;18076;52.154;10.570;2023-10-19T01:13:40;7.40;99.90
21312;DHT22;18076;52.154;10.570;2023-10-19T01:16:16;7.40;99.90
21312;DHT22;18076;52.154;10.570;2023-10-19T01:18:49;7.40;99.90
21312;DHT22;18076;52.154;10.570;2023-10-19T01:21:27;7.40;99.90
21312;DHT22;18076;52.154;10.570;2023-10-19T01:24:08;7.40;99.90
21312;DHT22;18076;52.154;10.570;2023-10-19T01:26:37;7.40;99.90
21312;DHT22;18076;52.154;10.570;2023-10-19T01:29:03;7.40;99.90
21312;DHT22;18076;52.154;10.570;2023-10-19T01:31:39;7.40;99.90
21312;DHT22;18076;52.154;10.570;2023-10-19T01:34:16;7.40;99.90
21312;DHT22;18076;52.154;10.570;2023-10-19T01:36:45;7.50;99.90
21312;DHT22;18076;52.154;10.570;2023-10-19T01:39:11;7.50;99.90
21312;DHT22;18076;52.154;10.570;2023-10-19T01:41:37;7.50;99.90
21312;DHT22;18076;52.154;10.570;2023-10-19T01:44:03;7.40;99.90
21312;DHT22;18076;52.154;10.570;2023-10-19T01:46:32;7.40;99.90
21312;DHT22;18076;52.154;10.570;2023-10-19T01:49:02;7.40;99.90
21312;DHT22;18076;52.154;10.570;2023-10-19T01:51:29;7.40;99.90
21312;DHT22;18076;52.154;10.570;2023-10-19T01:53:55;7.40;99.90
21312;DHT22;18076;52.154;10.570;2023-10-19T01:56:21;7.40;99.90
21312;DHT22;18076;52.154;10.570;2023-10-19T01:58:48;7.40;99.90
21312;DHT22;18076;52.154;10.570;2023-10-19T02:01:14;7.40;99.90
21312;DHT22;18076;52.154;10.570;2023-10-19T02:03:46;7.40;99.90
21312;DHT22;18076;52.154;10.570;2023-10-19T02:06:12;7.40;99.90
21312;DHT22;18076;52.154;10.570;2023-10-19T02:08:55;7.40;99.90
21312;DHT22;18076;52.154;10.570;2023-10-19T02:11:26;7.30;99.90
21312;DHT22;18076;52.154;10.570;2023-10-19T02:13:52;7.30;99.90
21312;DHT22;18076;52.154;10.570;2023-10-19T02:16:18;7.30;99.90
21312;DHT22;18076;52.154;10.570;2023-10-19T02:19:04;7.30;99.90
21312;DHT22;18076;52.154;10.570;2023-10-19T02:21:29;7.30;99.90
21312;DHT22;18076;52.154;10.570;2023-10-19T02:23:56;7.30;99.90
21312;DHT22;18076;52.154;10.570;2023-10-19T02:26:23;7.30;99.90
21312;DHT22;18076;52.154;10.570;2023-10-19T02:28:51;7.30;99.90
21312;DHT22;18076;52.154;10.570;2023-10-19T02:31:17;7.20;99.90
21312;DHT22;18076;52.154;10.570;2023-10-19T02:33:53;7.20;99.90
21312;DHT22;18076;52.154;10.570;2023-10-19T02:36:29;7.20;99.90
21312;DHT22;18076;52.154;10.570;2023-10-19T02:38:56;7.20;99.90
21312;DHT22;18076;52.154;10.570;2023-10-19T02:41:27;7.20;99.90
21312;DHT22;18076;52.154;10.570;2023-10-19T02:43:53;7.20;99.90
21312;DHT22;18076;52.154;10.570;2023-10-19T02:46:34;7.20;99.90
21312;DHT22;18076;52.154;10.570;2023-10-19T02:49:02;7.20;99.90
21312;DHT22;18076;52.154;10.570;2023-10-19T02:51:29;7.20;99.90
21312;DHT22;18076;52.154;10.570;2023-10-19T02:53:55;7.20;99.90
21312;DHT22;18076;52.154;10.570;2023-10-19T02:56:21;7.20;99.90
21312;DHT22;18076;52.154;10.570;2023-10-19T02:58:49;7.20;99.90
21312;DHT22;18076;52.154;10.570;2023-10-19T03:01:18;7.10;99.90
21312;DHT22;18076;52.154;10.570;2023-10-19T03:03:50;7.10;99.90
21312;DHT22;18076;52.154;10.570;2023-10-19T03:06:23;7.10;99.90
21312;DHT22;18076;52.154;10.570;2023-10-19T03:08:49;7.10;99.90
21312;DHT22;18076;52.154;10.570;2023-10-19T03:11:23;7.10;99.90
21312;DHT22;18076;52.154;10.570;2023-10-19T03:13:49;7.10;99.90
21312;DHT22;18076;52.154;10.570;2023-10-19T03:16:15;7.10;99.90
21312;DHT22;18076;52.154;10.570;2023-10-19T03:18:41;7.00;99.90
21312;DHT22;18076;52.154;10.570;2023-10-19T03:21:06;7.00;99.90
21312;DHT22;18076;52.154;10.570;2023-10-19T03:23:32;7.00;99.90
21312;DHT22;18076;52.154;10.570;2023-10-19T03:25:59;7.00;99.90
21312;DHT22;18076;52.154;10.570;2023-10-19T03:28:48;7.00;99.90
21312;DHT22;18076;52.154;10.570;2023-10-19T03:31:14;6.90;99.90
21312;DHT22;18076;52.154;10.570;2023-10-19T03:33:44;7.00;99.90
21312;DHT22;18076;52.154;10.570;2023-10-19T03:36:09;7.00;99.90
21312;DHT22;18076;52.154;10.570;2023-10-19T03:38:39;7.00;99.90
21312;DHT22;18076;52.154;10.570;2023-10-19T03:41:06;7.00;99.90
21312;DHT22;18076;52.154;10.570;2023-10-19T03:43:33;7.00;99.90
21312;DHT22;18076;52.154;10.570;2023-10-19T03:45:58;7.00;99.90
21312;DHT22;18076;52.154;10.570;2023-10-19T03:48:24;7.00;99.90
21312;DHT22;18076;52.154;10.570;2023-10-19T03:50:56;7.00;99.90
21312;DHT22;18076;52.154;10.570;2023-10-19T03:53:22;7.00;99.90
21312;DHT22;18076;52.154;10.570;2023-10-19T03:55:48;7.00;99.90
21312;DHT22;18076;52.154;10.570;2023-10-19T03:58:16;7.00;99.90
21312;DHT22;18076;52.154;10.570;2023-10-19T04:00:42;6.90;99.90
21312;DHT22;18076;52.154;10.570;2023-10-19T04:03:09;7.00;99.90
21312;DHT22;18076;52.154;10.570;2023-10-19T04:05:35;6.90;99.90
21312;DHT22;18076;52.154;10.570;2023-10-19T04:08:06;6.90;99.90
21312;DHT22;18076;52.154;10.570;2023-10-19T04:10:39;7.00;99.90
21312;DHT22;18076;52.154;10.570;2023-10-19T04:13:10;6.90;99.90
21312;DHT22;18076;52.154;10.570;2023-10-19T04:15:36;6.90;99.90
21312;DHT22;18076;52.154;10.570;2023-10-19T04:18:05;6.90;99.90
21312;DHT22;18076;52.154;10.570;2023-10-19T04:20:37;6.90;99.90
21312;DHT22;18076;52.154;10.570;2023-10-19T04:23:15;7.00;99.90
21312;DHT22;18076;52.154;10.570;2023-10-19T04:25:41;6.90;99.90
21312;DHT22;18076;52.154;10.570;2023-10-19T04:28:06;6.90;99.90
21312;DHT22;18076;52.154;10.570;2023-10-19T04:30:32;6.90;99.90
21312;DHT22;18076;52.154;10.570;2023-10-19T04:33:02;6.90;99.90
21312;DHT22;18076;52.154;10.570;2023-10-19T04:35:28;6.90;99.90
21312;DHT22;18076;52.154;10.570;2023-10-19T04:37:59;6.90;99.90
21312;DHT22;18076;52.154;10.570;2023-10-19T04:40:25;6.90;99.90
21312;DHT22;18076;52.154;10.570;2023-10-19T04:42:51;6.90;99.90
21312;DHT22;18076;52.154;10.570;2023-10-19T04:45:17;6.90;99.90
21312;DHT22;18076;52.154;10.570;2023-10-19T04:47:42;6.90;99.90
21312;DHT22;18076;52.154;10.570;2023-10-19T04:50:08;7.00;99.90
21312;DHT22;18076;52.154;10.570;2023-10-19T04:52:37;7.00;99.90
21312;DHT22;18076;52.154;10.570;2023-10-19T04:55:02;7.00;99.90
21312;DHT22;18076;52.154;10.570;2023-10-19T04:57:28;7.00;99.90
21312;DHT22;18076;52.154;10.570;2023-10-19T04:59:54;7.00;99.90
21312;DHT22;18076;52.154;10.570;2023-10-19T05:02:20;7.00;99.90
21312;DHT22;18076;52.154;10.570;2023-10-19T05:04:46;7.00;99.90
21312;DHT22;18076;52.154;10.570;2023-10-19T05:07:11;7.00;99.90
21312;DHT22;18076;52.154;10.570;2023-10-19T05:09:40;7.00;99.90
21312;DHT22;18076;52.154;10.570;2023-10-19T05:12:09;7.00;99.90
21312;DHT22;18076;52.154;10.570;2023-10-19T05:14:35;7.00;99.90
21312;DHT22;18076;52.154;10.570;2023-10-19T05:17:07;7.00;99.90
21312;DHT22;18076;52.154;10.570;2023-10-19T05:19:34;7.00;99.90
21312;DHT22;18076;52.154;10.570;2023-10-19T05:22:01;7.10;99.90
21312;DHT22;18076;52.154;10.570;2023-10-19T05:24:27;7.00;99.90
21312;DHT22;18076;52.154;10.570;2023-10-19T05:26:53;7.00;99.90
21312;DHT22;18076;52.154;10.570;2023-10-19T05:29:19;7.00;99.90
21312;DHT22;18076;52.154;10.570;2023-10-19T05:31:45;7.10;99.90
21312;DHT22;18076;52.154;10.570;2023-10-19T05:34:11;7.10;99.90
21312;DHT22;18076;52.154;10.570;2023-10-19T05:36:36;7.10;99.90
21312;DHT22;18076;52.154;10.570;2023-10-19T05:39:02;7.10;99.90
21312;DHT22;18076;52.154;10.570;2023-10-19T05:41:29;7.10;99.90
21312;DHT22;18076;52.154;10.570;2023-10-19T05:43:56;7.10;99.90
21312;DHT22;18076;52.154;10.570;2023-10-19T05:46:22;7.10;99.90
21312;DHT22;18076;52.154;10.570;2023-10-19T05:48:50;7.10;99.90
21312;DHT22;18076;52.154;10.570;2023-10-19T05:51:16;7.10;99.90
21312;DHT22;18076;52.154;10.570;2023-10-19T05:53:42;7.10;99.90
21312;DHT22;18076;52.154;10.570;2023-10-19T05:56:10;7.10;99.90
21312;DHT22;18076;52.154;10.570;2023-10-19T05:58:36;7.10;99.90
21312;DHT22;18076;52.154;10.570;2023-10-19T06:01:01;7.20;99.90
21312;DHT22;18076;52.154;10.570;2023-10-19T06:03:28;7.20;99.90
21312;DHT22;18076;52.154;10.570;2023-10-19T06:05:53;7.10;99.90
21312;DHT22;18076;52.154;10.570;2023-10-19T06:08:22;7.10;99.90
21312;DHT22;18076;52.154;10.570;2023-10-19T06:10:51;7.10;99.90
21312;DHT22;18076;52.154;10.570;2023-10-19T06:13:17;7.10;99.90
21312;DHT22;18076;52.154;10.570;2023-10-19T06:15:42;7.10;99.90
21312;DHT22;18076;52.154;10.570;2023-10-19T06:18:08;7.20;99.90
21312;DHT22;18076;52.154;10.570;2023-10-19T06:20:35;7.20;99.90
21312;DHT22;18076;52.154;10.570;2023-10-19T06:23:01;7.20;99.90
21312;DHT22;18076;52.154;10.570;2023-10-19T06:25:30;7.20;99.90
21312;DHT22;18076;52.154;10.570;2023-10-19T06:27:56;7.20;99.90
21312;DHT22;18076;52.154;10.570;2023-10-19T06:30:22;7.20;99.90
21312;DHT22;18076;52.154;10.570;2023-10-19T06:32:49;7.20;99.90
21312;DHT22;18076;52.154;10.570;2023-10-19T06:35:16;7.20;99.90
21312;DHT22;18076;52.154;10.570;2023-10-19T06:37:42;7.20;99.90
21312;DHT22;18076;52.154;10.570;2023-10-19T06:40:10;7.10;99.90
21312;DHT22;18076;52.154;10.570;2023-10-19T06:42:42;7.10;99.90
21312;DHT22;18076;52.154;10.570;2023-10-19T06:45:08;7.10;99.90
21312;DHT22;18076;52.154;10.570;2023-10-19T06:47:35;7.10;99.90
21312;DHT22;18076;52.154;10.570;2023-10-19T06:50:04;7.10;99.90
21312;DHT22;18076;52.154;10.570;2023-10-19T06:52:32;7.10;99.90
21312;DHT22;18076;52.154;10.570;2023-10-19T06:54:58;7.10;99.90
21312;DHT22;18076;52.154;10.570;2023-10-19T06:57:23;7.10;99.90
21312;DHT22;18076;52.154;10.570;2023-10-19T06:59:49;7.10;99.90
21312;DHT22;18076;52.154;10.570;2023-10-19T07:02:17;7.20;99.90
21312;DHT22;18076;52.154;10.570;2023-10-19T07:04:46;7.10;99.90
21312;DHT22;18076;52.154;10.570;2023-10-19T07:07:13;7.20;99.90
21312;DHT22;18076;52.154;10.570;2023-10-19T07:09:39;7.20;99.90
21312;DHT22;18076;52.154;10.570;2023-10-19T07:12:06;7.20;99.90
21312;DHT22;18076;52.154;10.570;2023-10-19T07:14:33;7.30;99.90
21312;DHT22;18076;52.154;10.570;2023-10-19T07:16:59;7.20;99.90
21312;DHT22;18076;52.154;10.570;2023-10-19T07:19:25;7.30;99.90
21312;DHT22;18076;52.154;10.570;2023-10-19T07:21:54;7.30;99.90
21312;DHT22;18076;52.154;10.570;2023-10-19T07:24:24;7.20;99.90
21312;DHT22;18076;52.154;10.570;2023-10-19T07:26:50;7.20;99.90
21312;DHT22;18076;52.154;10.570;2023-10-19T07:29:36;7.10;99.90
21312;DHT22;18076;52.154;10.570;2023-10-19T07:32:02;7.20;99.90
21312;DHT22;18076;52.154;10.570;2023-10-19T07:34:31;7.20;99.90
21312;DHT22;18076;52.154;10.570;2023-10-19T07:36:58;7.20;99.90
21312;DHT22;18076;52.154;10.570;2023-10-19T07:39:25;7.30;99.90
21312;DHT22;18076;52.154;10.570;2023-10-19T07:41:55;7.30;99.90
21312;DHT22;18076;52.154;10.570;2023-10-19T07:44:20;7.30;99.90
21312;DHT22;18076;52.154;10.570;2023-10-19T07:46:48;7.30;99.90
21312;DHT22;18076;52.154;10.570;2023-10-19T07:49:18;7.30;99.90
21312;DHT22;18076;52.154;10.570;2023-10-19T07:51:47;7.30;99.90
21312;DHT22;18076;52.154;10.570;2023-10-19T07:54:16;7.30;99.90
21312;DHT22;18076;52.154;10.570;2023-10-19T07:56:45;7.30;99.90
21312;DHT22;18076;52.154;10.570;2023-10-19T07:59:13;7.40;99.90
21312;DHT22;18076;52.154;10.570;2023-10-19T08:01:39;7.40;99.90
21312;DHT22;18076;52.154;10.570;2023-10-19T08:04:05;7.30;99.90
21312;DHT22;18076;52.154;10.570;2023-10-19T08:06:31;7.30;99.90
21312;DHT22;18076;52.154;10.570;2023-10-19T08:08:56;7.30;99.90
21312;DHT22;18076;52.154;10.570;2023-10-19T08:11:23;7.40;99.90
21312;DHT22;18076;52.154;10.570;2023-10-19T08:13:49;7.40;99.90
21312;DHT22;18076;52.154;10.570;2023-10-19T08:16:15;7.50;99.90
21312;DHT22;18076;52.154;10.570;2023-10-19T08:18:42;7.50;99.90
21312;DHT22;18076;52.154;10.570;2023-10-19T08:21:07;7.50;99.90
21312;DHT22;18076;52.154;10.570;2023-10-19T08:23:33;7.50;99.90
21312;DHT22;18076;52.154;10.570;2023-10-19T08:25:58;7.50;99.90
21312;DHT22;18076;52.154;10.570;2023-10-19T08:28:25;7.50;99.90
21312;DHT22;18076;52.154;10.570;2023-10-19T08:30:50;7.50;99.90
21312;DHT22;18076;52.154;10.570;2023-10-19T08:33:25;7.60;99.90
21312;DHT22;18076;52.154;10.570;2023-10-19T08:35:54;7.60;99.90
21312;DHT22;18076;52.154;10.570;2023-10-19T08:38:20;7.60;99.90
21312;DHT22;18076;52.154;10.570;2023-10-19T08:40:45;7.50;99.90
21312;DHT22;18076;52.154;10.570;2023-10-19T08:43:11;7.60;99.90
21312;DHT22;18076;52.154;10.570;2023-10-19T08:45:38;7.60;99.90
21312;DHT22;18076;52.154;10.570;2023-10-19T08:48:04;7.60;99.90
21312;DHT22;18076;52.154;10.570;2023-10-19T08:50:30;7.60;99.90
21312;DHT22;18076;52.154;10.570;2023-10-19T08:52:57;7.60;99.90
21312;DHT22;18076;52.154;10.570;2023-10-19T08:55:23;7.70;99.90
21312;DHT22;18076;52.154;10.570;2023-10-19T08:57:49;7.70;99.90
21312;DHT22;18076;52.154;10.570;2023-10-19T09:00:15;7.70;99.90
21312;DHT22;18076;52.154;10.570;2023-10-19T09:02:47;7.70;99.90
21312;DHT22;18076;52.154;10.570;2023-10-19T09:05:13;7.80;99.90
21312;DHT22;18076;52.154;10.570;2023-10-19T09:07:51;7.80;99.90
21312;DHT22;18076;52.154;10.570;2023-10-19T09:10:21;7.80;99.90
21312;DHT22;18076;52.154;10.570;2023-10-19T09:13:05;7.80;99.90
21312;DHT22;18076;52.154;10.570;2023-10-19T09:15:35;7.80;99.90
21312;DHT22;18076;52.154;10.570;2023-10-19T09:20:42;7.90;99.90
21312;DHT22;18076;52.154;10.570;2023-10-19T09:23:13;7.90;99.90
21312;DHT22;18076;52.154;10.570;2023-10-19T09:25:39;7.90;99.90
21312;DHT22;18076;52.154;10.570;2023-10-19T09:28:05;8.00;99.90
21312;DHT22;18076;52.154;10.570;2023-10-19T09:30:31;8.00;99.90
21312;DHT22;18076;52.154;10.570;2023-10-19T09:32:58;8.10;99.90
21312;DHT22;18076;52.154;10.570;2023-10-19T09:35:24;8.10;99.90
21312;DHT22;18076;52.154;10.570;2023-10-19T09:37:53;8.10;99.90
21312;DHT22;18076;52.154;10.570;2023-10-19T09:40:19;8.10;99.90
21312;DHT22;18076;52.154;10.570;2023-10-19T09:42:45;8.10;99.90
21312;DHT22;18076;52.154;10.570;2023-10-19T09:45:14;8.10;99.90
21312;DHT22;18076;52.154;10.570;2023-10-19T09:47:41;8.10;99.90
21312;DHT22;18076;52.154;10.570;2023-10-19T09:50:11;8.00;99.90
21312;DHT22;18076;52.154;10.570;2023-10-19T09:52:37;8.10;99.90
21312;DHT22;18076;52.154;10.570;2023-10-19T09:55:24;8.10;99.90
21312;DHT22;18076;52.154;10.570;2023-10-19T10:00:17;8.30;99.90
21312;DHT22;18076;52.154;10.570;2023-10-19T10:02:49;8.30;99.90
21312;DHT22;18076;52.154;10.570;2023-10-19T10:08:41;8.50;99.90
21312;DHT22;18076;52.154;10.570;2023-10-19T10:10:48;8.60;99.90
21312;DHT22;18076;52.154;10.570;2023-10-19T10:15:49;8.60;99.90
21312;DHT22;18076;52.154;10.570;2023-10-19T10:18:15;8.60;99.90
21312;DHT22;18076;52.154;10.570;2023-10-19T10:20:40;8.60;99.90
21312;DHT22;18076;52.154;10.570;2023-10-19T10:23:20;8.60;99.90
21312;DHT22;18076;52.154;10.570;2023-10-19T10:25:52;8.60;99.90
21312;DHT22;18076;52.154;10.570;2023-10-19T10:28:19;8.60;99.90
21312;DHT22;18076;52.154;10.570;2023-10-19T10:31:06;8.70;99.90
21312;DHT22;18076;52.154;10.570;2023-10-19T10:36:08;8.90;99.90
21312;DHT22;18076;52.154;10.570;2023-10-19T10:38:34;8.90;99.90
21312;DHT22;18076;52.154;10.570;2023-10-19T10:41:00;8.90;99.90
21312;DHT22;18076;52.154;10.570;2023-10-19T10:43:27;8.90;99.90
21312;DHT22;18076;52.154;10.570;2023-10-19T10:46:02;9.00;99.90
21312;DHT22;18076;52.154;10.570;2023-10-19T10:48:28;9.10;99.90
21312;DHT22;18076;52.154;10.570;2023-10-19T10:50:53;9.00;99.90
21312;DHT22;18076;52.154;10.570;2023-10-19T10:53:19;9.00;99.90
21312;DHT22;18076;52.154;10.570;2023-10-19T10:55:44;9.00;99.90
21312;DHT22;18076;52.154;10.570;2023-10-19T10:58:16;9.00;99.90
21312;DHT22;18076;52.154;10.570;2023-10-19T11:00:43;9.00;99.90
21312;DHT22;18076;52.154;10.570;2023-10-19T11:03:09;9.00;99.90
21312;DHT22;18076;52.154;10.570;2023-10-19T11:05:38;9.00;99.90
21312;DHT22;18076;52.154;10.570;2023-10-19T11:08:10;9.00;99.90
21312;DHT22;18076;52.154;10.570;2023-10-19T11:10:39;9.00;99.90
21312;DHT22;18076;52.154;10.570;2023-10-19T11:13:06;9.00;99.90
21312;DHT22;18076;52.154;10.570;2023-10-19T11:15:32;9.10;99.90
21312;DHT22;18076;52.154;10.570;2023-10-19T11:17:58;9.00;99.90
21312;DHT22;18076;52.154;10.570;2023-10-19T11:20:24;9.20;99.90
21312;DHT22;18076;52.154;10.570;2023-10-19T11:22:51;9.20;99.90
21312;DHT22;18076;52.154;10.570;2023-10-19T11:25:17;9.20;99.90
21312;DHT22;18076;52.154;10.570;2023-10-19T11:27:43;9.10;99.90
21312;DHT22;18076;52.154;10.570;2023-10-19T11:30:08;9.00;99.90
21312;DHT22;18076;52.154;10.570;2023-10-19T11:32:37;9.00;99.90
21312;DHT22;18076;52.154;10.570;2023-10-19T11:35:06;9.00;99.90
21312;DHT22;18076;52.154;10.570;2023-10-19T11:37:45;9.00;99.90
21312;DHT22;18076;52.154;10.570;2023-10-19T11:40:11;9.00;99.90
21312;DHT22;18076;52.154;10.570;2023-10-19T11:42:36;9.10;99.90
21312;DHT22;18076;52.154;10.570;2023-10-19T11:45:02;9.10;99.90
21312;DHT22;18076;52.154;10.570;2023-10-19T11:47:30;9.10;99.90
21312;DHT22;18076;52.154;10.570;2023-10-19T11:49:55;9.10;99.90
21312;DHT22;18076;52.154;10.570;2023-10-19T11:52:21;9.20;99.90
21312;DHT22;18076;52.154;10.570;2023-10-19T11:54:48;9.20;99.90
21312;DHT22;18076;52.154;10.570;2023-10-19T11:57:13;9.20;99.90
21312;DHT22;18076;52.154;10.570;2023-10-19T11:59:39;9.20;99.90
21312;DHT22;18076;52.154;10.570;2023-10-19T12:02:06;9.20;99.90
21312;DHT22;18076;52.154;10.570;2023-10-19T12:04:32;9.30;99.90
21312;DHT22;18076;52.154;10.570;2023-10-19T12:07:01;9.30;99.90
21312;DHT22;18076;52.154;10.570;2023-10-19T12:09:28;9.40;99.90
21312;DHT22;18076;52.154;10.570;2023-10-19T12:11:53;9.30;99.90
21312;DHT22;18076;52.154;10.570;2023-10-19T12:14:19;9.40;99.90
21312;DHT22;18076;52.154;10.570;2023-10-19T12:16:46;9.50;99.90
21312;DHT22;18076;52.154;10.570;2023-10-19T12:19:12;9.50;99.90
21312;DHT22;18076;52.154;10.570;2023-10-19T12:21:39;9.50;99.90
21312;DHT22;18076;52.154;10.570;2023-10-19T12:24:07;9.50;99.90
21312;DHT22;18076;52.154;10.570;2023-10-19T12:26:33;9.50;99.90
21312;DHT22;18076;52.154;10.570;2023-10-19T12:28:58;9.50;99.90
21312;DHT22;18076;52.154;10.570;2023-10-19T12:31:24;9.50;99.90
21312;DHT22;18076;52.154;10.570;2023-10-19T12:33:51;9.50;99.90
21312;DHT22;18076;52.154;10.570;2023-10-19T12:36:16;9.50;99.90
21312;DHT22;18076;52.154;10.570;2023-10-19T12:38:54;9.50;99.90
21312;DHT22;18076;52.154;10.570;2023-10-19T12:41:20;9.60;99.90
21312;DHT22;18076;52.154;10.570;2023-10-19T12:43:46;9.60;99.90
21312;DHT22;18076;52.154;10.570;2023-10-19T12:46:12;9.60;99.90
21312;DHT22;18076;52.154;10.570;2023-10-19T12:48:42;9.60;99.90
21312;DHT22;18076;52.154;10.570;2023-10-19T12:51:08;9.60;99.90
21312;DHT22;18076;52.154;10.570;2023-10-19T12:53:37;9.60;99.90
21312;DHT22;18076;52.154;10.570;2023-10-19T12:56:04;9.60;99.90
21312;DHT22;18076;52.154;10.570;2023-10-19T12:58:30;9.60;99.90
21312;DHT22;18076;52.154;10.570;2023-10-19T13:00:57;9.60;99.90
21312;DHT22;18076;52.154;10.570;2023-10-19T13:03:23;9.60;99.90
21312;DHT22;18076;52.154;10.570;2023-10-19T13:05:52;9.70;99.90
21312;DHT22;18076;52.154;10.570;2023-10-19T13:08:18;9.70;99.90
21312;DHT22;18076;52.154;10.570;2023-10-19T13:10:45;9.60;99.90
21312;DHT22;18076;52.154;10.570;2023-10-19T13:13:11;9.70;99.90
21312;DHT22;18076;52.154;10.570;2023-10-19T13:15:38;9.70;99.90
21312;DHT22;18076;52.154;10.570;2023-10-19T13:18:04;9.60;99.90
21312;DHT22;18076;52.154;10.570;2023-10-19T13:20:31;9.60;99.90
21312;DHT22;18076;52.154;10.570;2023-10-19T13:23:09;9.60;99.90
21312;DHT22;18076;52.154;10.570;2023-10-19T13:25:41;9.60;99.90
21312;DHT22;18076;52.154;10.570;2023-10-19T13:28:10;9.70;99.90
21312;DHT22;18076;52.154;10.570;2023-10-19T13:30:39;9.70;99.90
21312;DHT22;18076;52.154;10.570;2023-10-19T13:33:06;9.60;99.90
21312;DHT22;18076;52.154;10.570;2023-10-19T13:35:35;9.60;99.90
21312;DHT22;18076;52.154;10.570;2023-10-19T13:38:01;9.60;99.90
21312;DHT22;18076;52.154;10.570;2023-10-19T13:40:27;9.60;99.90
21312;DHT22;18076;52.154;10.570;2023-10-19T13:42:56;9.60;99.90
21312;DHT22;18076;52.154;10.570;2023-10-19T13:45:21;9.70;99.90
21312;DHT22;18076;52.154;10.570;2023-10-19T13:47:47;9.70;99.90
21312;DHT22;18076;52.154;10.570;2023-10-19T13:50:12;9.80;99.90
21312;DHT22;18076;52.154;10.570;2023-10-19T13:52:38;9.80;99.90
21312;DHT22;18076;52.154;10.570;2023-10-19T13:55:05;9.80;99.90
21312;DHT22;18076;52.154;10.570;2023-10-19T13:57:32;9.80;99.90
21312;DHT22;18076;52.154;10.570;2023-10-19T13:59:58;9.80;99.90
21312;DHT22;18076;52.154;10.570;2023-10-19T14:02:24;9.80;99.90
21312;DHT22;18076;52.154;10.570;2023-10-19T14:04:50;9.80;99.90
21312;DHT22;18076;52.154;10.570;2023-10-19T14:07:17;9.80;99.90
21312;DHT22;18076;52.154;10.570;2023-10-19T14:09:42;9.80;99.90
21312;DHT22;18076;52.154;10.570;2023-10-19T14:12:08;9.80;99.90
21312;DHT22;18076;52.154;10.570;2023-10-19T14:14:34;9.70;99.90
21312;DHT22;18076;52.154;10.570;2023-10-19T14:17:00;9.70;99.90
21312;DHT22;18076;52.154;10.570;2023-10-19T14:19:26;9.70;99.90
21312;DHT22;18076;52.154;10.570;2023-10-19T14:21:51;9.70;99.90
21312;DHT22;18076;52.154;10.570;2023-10-19T14:24:18;9.60;99.90
21312;DHT22;18076;52.154;10.570;2023-10-19T14:26:45;9.60;99.90
21312;DHT22;18076;52.154;10.570;2023-10-19T14:29:12;9.60;99.90
21312;DHT22;18076;52.154;10.570;2023-10-19T14:31:39;9.60;99.90
21312;DHT22;18076;52.154;10.570;2023-10-19T14:34:04;9.60;99.90
21312;DHT22;18076;52.154;10.570;2023-10-19T14:36:30;9.60;99.90
21312;DHT22;18076;52.154;10.570;2023-10-19T14:38:56;9.60;99.90
21312;DHT22;18076;52.154;10.570;2023-10-19T14:41:21;9.60;99.90
21312;DHT22;18076;52.154;10.570;2023-10-19T14:43:47;9.60;99.90
21312;DHT22;18076;52.154;10.570;2023-10-19T14:46:13;9.60;99.90
21312;DHT22;18076;52.154;10.570;2023-10-19T14:48:38;9.60;99.90
21312;DHT22;18076;52.154;10.570;2023-10-19T14:51:04;9.60;99.90
21312;DHT22;18076;52.154;10.570;2023-10-19T14:53:30;9.60;99.90
21312;DHT22;18076;52.154;10.570;2023-10-19T14:55:56;9.70;99.90
21312;DHT22;18076;52.154;10.570;2023-10-19T14:58:26;9.70;99.90
21312;DHT22;18076;52.154;10.570;2023-10-19T15:00:52;9.60;99.90
21312;DHT22;18076;52.154;10.570;2023-10-19T15:03:20;9.60;99.90
21312;DHT22;18076;52.154;10.570;2023-10-19T15:05:49;9.60;99.90
21312;DHT22;18076;52.154;10.570;2023-10-19T15:08:16;9.60;99.90
21312;DHT22;18076;52.154;10.570;2023-10-19T15:10:42;9.60;99.90
21312;DHT22;18076;52.154;10.570;2023-10-19T15:13:07;9.60;99.90
21312;DHT22;18076;52.154;10.570;2023-10-19T15:15:33;9.60;99.90
21312;DHT22;18076;52.154;10.570;2023-10-19T15:17:59;9.60;99.90
21312;DHT22;18076;52.154;10.570;2023-10-19T15:20:25;9.60;99.90
21312;DHT22;18076;52.154;10.570;2023-10-19T15:22:51;9.50;99.90
21312;DHT22;18076;52.154;10.570;2023-10-19T15:25:19;9.50;99.90
21312;DHT22;18076;52.154;10.570;2023-10-19T15:27:45;9.50;99.90
21312;DHT22;18076;52.154;10.570;2023-10-19T15:30:11;9.40;99.90
21312;DHT22;18076;52.154;10.570;2023-10-19T15:32:38;9.50;99.90
21312;DHT22;18076;52.154;10.570;2023-10-19T15:35:04;9.40;99.90
21312;DHT22;18076;52.154;10.570;2023-10-19T15:37:29;9.50;99.90
21312;DHT22;18076;52.154;10.570;2023-10-19T15:39:55;9.40;99.90
21312;DHT22;18076;52.154;10.570;2023-10-19T15:42:20;9.40;99.90
21312;DHT22;18076;52.154;10.570;2023-10-19T15:44:50;9.30;99.90
21312;DHT22;18076;52.154;10.570;2023-10-19T15:47:16;9.30;99.90